Time;durP1;ratioP1;P1;durP2;ratioP2;P2;SDS_P1;SDS_P2;PMS_P1;PMS_P2;Temp;Humidity;BMP_temperature;BMP_pressure;BME280_temperature;BME280_humidity;BME280_pressure;Samples;Min_cycle;Max_cycle;Signal;HPM_P1;HPM_P2
2022/08/18 00:01:50;;;;;;;15.98;8.30;;;;;;;20.78;100.00;95997.88;5037428;28;20209;-72
2022/08/18 00:04:17;;;;;;;15.52;8.60;;;;;;;20.81;100.00;95997.38;5036773;28;20709;-72
2022/08/18 00:06:44;;;;;;;16.45;8.27;;;;;;;20.83;100.00;95999.84;5037387;28;20255;-72
2022/08/18 00:09:11;;;;;;;14.48;8.60;;;;;;;20.86;100.00;96000.97;5037600;28;20630;-72
2022/08/18 00:11:41;;;;;;;19.77;8.73;;;;;;;20.74;100.00;95990.59;5037629;28;20689;-72
2022/08/18 00:14:08;;;;;;;18.42;8.80;;;;;;;20.69;100.00;95987.81;5036833;28;20232;-73
2022/08/18 00:16:35;;;;;;;15.88;8.35;;;;;;;20.62;100.00;95992.50;5036707;28;20232;-72
2022/08/18 00:19:03;;;;;;;20.85;8.80;;;;;;;20.74;100.00;95993.28;5037294;28;20256;-72
2022/08/18 00:21:29;;;;;;;19.85;10.00;;;;;;;20.70;100.00;95976.06;5037738;28;20209;-72
2022/08/18 00:23:56;;;;;;;19.55;9.70;;;;;;;20.56;100.00;95964.84;5036801;28;20205;-72
2022/08/18 00:26:22;;;;;;;19.33;9.93;;;;;;;20.61;100.00;95958.75;5037164;28;20201;-72
2022/08/18 00:28:49;;;;;;;23.60;9.93;;;;;;;20.46;100.00;95958.53;5036887;28;20205;-72
2022/08/18 00:31:15;;;;;;;19.20;10.05;;;;;;;20.54;100.00;95958.13;5037245;28;20201;-72
2022/08/18 00:33:42;;;;;;;18.50;10.20;;;;;;;20.59;100.00;95960.88;5036465;28;20209;-72
2022/08/18 00:36:11;;;;;;;21.00;10.27;;;;;;;20.66;100.00;95973.03;5037084;28;20249;-72
2022/08/18 00:38:38;;;;;;;21.63;10.32;;;;;;;20.48;100.00;95981.34;5036203;28;20228;-72
2022/08/18 00:41:05;;;;;;;20.15;10.52;;;;;;;20.54;100.00;95991.03;5036789;28;20240;-72
2022/08/18 00:43:38;;;;;;;19.50;10.70;;;;;;;20.69;100.00;95980.56;5035910;28;20219;-72
2022/08/18 00:46:07;;;;;;;26.90;11.48;;;;;;;20.50;100.00;95989.13;5037071;28;20225;-72
2022/08/18 00:48:34;;;;;;;16.92;9.88;;;;;;;20.26;100.00;95988.47;5036186;28;20205;-72
2022/08/18 00:51:06;;;;;;;18.63;9.63;;;;;;;20.33;100.00;95986.44;5036114;28;20208;-72
2022/08/18 00:53:40;;;;;;;19.80;10.93;;;;;;;20.31;100.00;95980.53;5036232;28;20205;-72
2022/08/18 00:56:13;;;;;;;24.25;12.45;;;;;;;20.28;100.00;95975.63;5034466;28;20226;-72
2022/08/18 00:58:43;;;;;;;23.23;11.85;;;;;;;20.38;100.00;95977.69;5036148;28;20221;-72
2022/08/18 01:01:12;;;;;;;28.08;13.27;;;;;;;20.38;100.00;95986.50;5036563;28;20208;-72
2022/08/18 01:03:39;;;;;;;25.40;12.18;;;;;;;20.38;100.00;95985.72;5035999;28;20202;-72
2022/08/18 01:06:14;;;;;;;26.35;12.25;;;;;;;20.43;100.00;95967.03;5036148;28;20220;-72
2022/08/18 01:08:42;;;;;;;23.92;12.35;;;;;;;20.56;100.00;95964.84;5036388;28;20200;-72
2022/08/18 01:11:09;;;;;;;25.38;13.00;;;;;;;20.50;100.00;95951.63;5036607;28;20208;-72
2022/08/18 01:13:37;;;;;;;23.92;12.85;;;;;;;20.45;100.00;95938.97;5035474;28;20216;-72
2022/08/18 01:21:49;;;;;;;24.45;12.43;;;;;;;20.54;100.00;95942.84;5036447;28;20256;-72
2022/08/18 01:21:50;;;;;;;26.20;12.60;;;;;;;20.64;100.00;95934.97;5012939;28;20291;-72
2022/08/18 01:25:58;;;;;;;22.67;11.77;;;;;;;20.61;100.00;95922.09;5035633;28;21025;-72
2022/08/18 01:27:07;;;;;;;24.17;12.48;;;;;;;20.42;100.00;95922.59;5036050;28;20205;-72
2022/08/18 01:29:35;;;;;;;23.55;12.45;;;;;;;20.55;100.00;95916.91;5036065;28;20578;-72
2022/08/18 01:32:02;;;;;;;25.00;12.90;;;;;;;20.47;100.00;95909.31;5036542;28;20263;-72
2022/08/18 01:34:29;;;;;;;27.33;11.68;;;;;;;20.34;100.00;95904.25;5035947;28;20228;-72
2022/08/18 01:36:56;;;;;;;26.35;12.82;;;;;;;20.42;100.00;95902.00;5036295;28;20201;-72
2022/08/18 01:39:24;;;;;;;24.77;12.75;;;;;;;20.41;100.00;95886.19;5036290;28;20221;-72
2022/08/18 01:41:51;;;;;;;21.48;12.23;;;;;;;20.27;100.00;95875.00;5036089;28;20656;-72
2022/08/18 01:44:18;;;;;;;25.27;12.40;;;;;;;20.33;100.00;95867.88;5035606;28;20265;-72
2022/08/18 01:46:44;;;;;;;24.67;12.38;;;;;;;20.25;100.00;95876.28;5036104;28;20704;-72
2022/08/18 01:49:12;;;;;;;22.45;12.10;;;;;;;20.29;100.00;95885.47;5036041;28;20197;-72
2022/08/18 01:51:41;;;;;;;22.73;11.25;;;;;;;20.20;100.00;95881.59;5039811;28;20204;-72
2022/08/18 01:54:10;;;;;;;21.10;11.70;;;;;;;20.22;100.00;95882.16;5037223;28;20251;-72
2022/08/18 01:56:37;;;;;;;25.80;12.85;;;;;;;20.21;100.00;95884.03;5040157;28;20201;-72
2022/08/18 01:59:04;;;;;;;22.63;12.80;;;;;;;20.17;100.00;95898.13;5040020;28;20225;-72
2022/08/18 02:01:31;;;;;;;20.10;10.95;;;;;;;20.17;100.00;95891.97;5039614;28;20201;-72
2022/08/18 02:03:59;;;;;;;20.73;10.18;;;;;;;20.14;100.00;95893.25;5039886;28;20220;-72
2022/08/18 02:06:26;;;;;;;22.40;12.15;;;;;;;20.02;100.00;95900.56;5037190;28;20396;-72
2022/08/18 02:08:52;;;;;;;21.35;11.48;;;;;;;20.03;100.00;95896.03;5039560;28;20205;-72
2022/08/18 02:11:19;;;;;;;22.35;11.15;;;;;;;20.03;100.00;95896.03;5039510;28;20204;-72
2022/08/18 02:13:47;;;;;;;25.75;12.35;;;;;;;20.08;100.00;95898.78;5039570;28;20563;-72
2022/08/18 02:16:13;;;;;;;23.70;11.80;;;;;;;19.85;100.00;95897.03;5039230;28;20255;-72
2022/08/18 02:18:40;;;;;;;24.25;12.48;;;;;;;19.87;100.00;95884.22;5039352;28;20254;-72
2022/08/18 02:21:10;;;;;;;21.27;12.27;;;;;;;20.02;100.00;95875.66;5039886;28;20201;-72
2022/08/18 02:23:36;;;;;;;22.42;12.45;;;;;;;19.94;100.00;95887.59;5039032;28;20465;-72
2022/08/18 02:26:06;;;;;;;22.35;12.68;;;;;;;20.03;100.00;95874.63;5039698;28;20248;-72
2022/08/18 02:28:33;;;;;;;23.85;12.30;;;;;;;19.89;100.00;95873.28;5039688;28;20212;-72
2022/08/18 02:31:06;;;;;;;22.05;12.68;;;;;;;20.01;100.00;95868.69;5039172;28;20201;-72
2022/08/18 02:33:33;;;;;;;21.67;11.70;;;;;;;19.87;100.00;95867.34;5038466;28;20340;-72
2022/08/18 02:36:00;;;;;;;22.13;11.52;;;;;;;19.77;100.00;95862.66;5038790;28;20221;-72
2022/08/18 02:38:27;;;;;;;21.38;10.93;;;;;;;19.85;100.00;95870.28;5039289;28;20361;-72
2022/08/18 02:40:55;;;;;;;20.95;11.02;;;;;;;19.77;100.00;95876.03;5039220;28;20209;-72
2022/08/18 02:43:22;;;;;;;18.80;10.10;;;;;;;19.71;100.00;95887.69;5038741;28;20220;-72
2022/08/18 02:45:48;;;;;;;18.33;10.38;;;;;;;19.72;100.00;95883.97;5038657;28;20233;-72
2022/08/18 02:48:17;;;;;;;21.10;9.82;;;;;;;19.72;100.00;95867.94;5038942;28;20204;-72
2022/08/18 02:50:46;;;;;;;16.52;8.98;;;;;;;19.65;100.00;95872.63;5038776;28;20205;-72
2022/08/18 02:53:18;;;;;;;17.83;9.13;;;;;;;19.63;100.00;95863.22;5037982;28;20209;-72
2022/08/18 02:55:45;;;;;;;15.38;9.02;;;;;;;19.62;100.00;95856.25;5036895;28;20278;-72
2022/08/18 02:58:12;;;;;;;13.27;7.82;;;;;;;19.57;100.00;95852.69;5038927;28;20232;-72
2022/08/18 03:00:38;;;;;;;19.27;8.20;;;;;;;19.57;100.00;95858.03;5038974;28;20205;-72
2022/08/18 03:03:05;;;;;;;12.73;7.85;;;;;;;19.63;100.00;95858.69;5037262;28;20197;-72
2022/08/18 03:05:33;;;;;;;13.38;7.70;;;;;;;19.71;100.00;95844.91;5038750;28;21142;-72
2022/08/18 03:07:59;;;;;;;16.15;7.60;;;;;;;19.59;100.00;95857.56;5038690;28;20212;-72
2022/08/18 03:10:26;;;;;;;16.40;8.18;;;;;;;19.58;100.00;95853.25;5038673;28;20212;-72
2022/08/18 03:12:52;;;;;;;13.48;7.55;;;;;;;19.58;100.00;95855.13;5037865;28;20221;-72
2022/08/18 03:15:19;;;;;;;12.98;7.47;;;;;;;19.50;100.00;95860.88;5039058;28;20221;-72
2022/08/18 03:17:45;;;;;;;14.57;7.78;;;;;;;19.51;100.00;95862.47;5037751;28;20212;-72
2022/08/18 03:20:12;;;;;;;12.90;7.60;;;;;;;19.50;100.00;95870.72;5038372;28;20255;-72
2022/08/18 03:22:41;;;;;;;13.05;7.53;;;;;;;19.52;100.00;95864.09;5038968;28;20197;-72
2022/08/18 03:25:08;;;;;;;11.95;7.20;;;;;;;19.42;100.00;95865.78;5038401;28;20221;-72
2022/08/18 03:27:34;;;;;;;12.93;7.32;;;;;;;19.46;100.00;95859.69;5037553;28;20205;-72
2022/08/18 03:30:01;;;;;;;11.07;6.82;;;;;;;19.44;100.00;95863.69;5038674;28;20201;-72
2022/08/18 03:32:28;;;;;;;16.60;8.00;;;;;;;19.38;100.00;95867.31;5038175;28;20209;-72
2022/08/18 03:34:54;;;;;;;13.10;7.40;;;;;;;19.41;100.00;95864.97;5037882;28;20566;-73
2022/08/18 03:37:21;;;;;;;14.18;7.38;;;;;;;19.32;100.00;95857.56;5037935;28;20639;-72
2022/08/18 03:39:50;;;;;;;13.48;7.05;;;;;;;19.49;100.00;95848.56;5038357;28;20231;-72
2022/08/18 03:42:16;;;;;;;12.48;7.57;;;;;;;19.32;100.00;95855.72;5037672;28;20674;-73
2022/08/18 03:44:43;;;;;;;11.30;7.15;;;;;;;19.29;100.00;95855.38;5037917;28;20240;-72
2022/08/18 03:47:10;;;;;;;14.90;6.97;;;;;;;19.30;100.00;95841.78;5038306;28;20213;-72
2022/08/18 03:49:38;;;;;;;10.57;6.38;;;;;;;19.31;100.00;95835.41;5037755;28;20632;-72
2022/08/18 03:52:08;;;;;;;11.82;6.75;;;;;;;19.34;100.00;95837.59;5037952;28;20193;-72
2022/08/18 03:54:35;;;;;;;13.07;7.30;;;;;;;19.20;100.00;95830.91;5034644;28;20289;-72
2022/08/18 03:57:02;;;;;;;11.60;6.72;;;;;;;19.31;100.00;95829.22;5037416;28;20997;-72
2022/08/18 03:59:30;;;;;;;11.02;6.40;;;;;;;19.19;100.00;95837.28;5037871;28;20228;-72
2022/08/18 04:01:57;;;;;;;11.95;6.18;;;;;;;19.14;100.00;95821.22;5037596;28;20231;-72
2022/08/18 04:04:25;;;;;;;11.15;6.15;;;;;;;19.20;100.00;95820.22;5036962;28;20225;-72
2022/08/18 04:06:54;;;;;;;11.75;6.88;;;;;;;19.14;100.00;95826.56;5037737;28;20209;-72
2022/08/18 04:09:23;;;;;;;12.82;7.13;;;;;;;19.08;100.00;95829.34;5037710;28;20198;-72
2022/08/18 04:11:49;;;;;;;11.18;6.57;;;;;;;19.08;100.00;95832.00;5037536;28;20205;-72
2022/08/18 04:14:20;;;;;;;14.60;6.25;;;;;;;19.14;100.00;95825.72;5036207;28;20204;-72
2022/08/18 04:16:47;;;;;;;11.60;6.97;;;;;;;19.16;100.00;95823.63;5037148;28;20209;-72
2022/08/18 04:19:15;;;;;;;15.50;7.68;;;;;;;19.12;100.00;95827.84;5037255;28;20347;-73
2022/08/18 04:21:42;;;;;;;15.32;7.15;;;;;;;19.08;100.00;95818.66;5037195;28;20292;-72
2022/08/18 04:24:10;;;;;;;15.63;8.05;;;;;;;19.09;100.00;95820.28;5037261;28;20208;-72
2022/08/18 04:26:39;;;;;;;14.73;7.97;;;;;;;19.11;100.00;95818.19;5036768;28;20193;-72
2022/08/18 04:29:07;;;;;;;15.43;7.47;;;;;;;19.06;100.00;95815.44;5036966;28;20193;-72
2022/08/18 04:31:35;;;;;;;12.48;6.70;;;;;;;19.07;100.00;95809.03;5037463;28;21230;-72
2022/08/18 04:34:02;;;;;;;12.25;7.00;;;;;;;19.09;100.00;95818.44;5037047;28;20201;-72
2022/08/18 04:36:30;;;;;;;12.52;7.45;;;;;;;19.13;100.00;95824.09;5036865;28;20206;-72
2022/08/18 04:38:58;;;;;;;14.07;7.90;;;;;;;19.15;100.00;95832.69;5036539;28;20217;-72
2022/08/18 04:41:26;;;;;;;14.57;7.80;;;;;;;19.19;100.00;95841.84;5037329;28;20251;-72
2022/08/18 04:43:53;;;;;;;13.93;7.43;;;;;;;19.17;100.00;95841.25;5036377;28;20206;-72
2022/08/18 04:46:19;;;;;;;14.85;8.20;;;;;;;19.10;100.00;95829.91;5037137;28;20221;-72
2022/08/18 04:48:47;;;;;;;14.65;7.95;;;;;;;19.22;100.00;95828.81;5036746;28;20208;-72
2022/08/18 04:51:17;;;;;;;17.60;9.02;;;;;;;18.94;100.00;95820.78;5036943;28;20205;-72
2022/08/18 04:53:46;;;;;;;23.67;9.60;;;;;;;18.77;100.00;95829.78;5035719;28;20208;-72
2022/08/18 04:56:21;;;;;;;19.35;10.15;;;;;;;19.00;100.00;95821.69;5035743;28;20719;-72
2022/08/18 04:58:50;;;;;;;21.30;10.52;;;;;;;18.74;100.00;95830.25;5036669;28;21028;-72
2022/08/18 05:01:17;;;;;;;20.45;11.23;;;;;;;18.89;100.00;95859.94;5036653;28;20623;-72
2022/08/18 05:03:43;;;;;;;23.27;11.13;;;;;;;19.05;100.00;95862.66;5036100;28;20213;-73
2022/08/18 05:06:11;;;;;;;19.08;10.40;;;;;;;19.14;100.00;95868.47;5036902;28;20216;-72
2022/08/18 05:08:38;;;;;;;21.17;11.45;;;;;;;19.27;100.00;95862.81;5036021;28;20749;-72
2022/08/18 05:11:05;;;;;;;27.38;11.65;;;;;;;19.39;100.00;95871.63;5036688;28;20572;-72
2022/08/18 05:13:31;;;;;;;18.17;10.05;;;;;;;19.36;100.00;95870.22;5036061;28;20246;-72
2022/08/18 05:16:02;;;;;;;19.15;10.60;;;;;;;19.63;100.00;95864.03;5036344;28;20233;-73
2022/08/18 05:18:29;;;;;;;24.33;10.80;;;;;;;19.66;100.00;95871.56;5036063;28;20259;-72
2022/08/18 05:20:58;;;;;;;21.75;10.75;;;;;;;19.80;100.00;95870.19;5035036;28;20197;-71
2022/08/18 05:23:28;;;;;;;20.38;10.55;;;;;;;20.04;100.00;95861.00;5035849;28;21172;-72
2022/08/18 05:25:58;;;;;;;20.10;10.45;;;;;;;20.05;100.00;95867.97;5039040;28;20225;-72
2022/08/18 05:28:24;;;;;;;26.10;10.80;;;;;;;19.95;100.00;95862.47;5040747;28;20574;-72
2022/08/18 05:30:50;;;;;;;18.55;10.20;;;;;;;19.85;100.00;95883.66;5040770;28;20205;-71
2022/08/18 05:33:17;;;;;;;21.38;10.02;;;;;;;19.97;100.00;95897.81;5037450;28;20212;-72
2022/08/18 05:35:47;;;;;;;18.88;9.82;;;;;;;20.25;100.00;95905.72;5040373;28;20324;-72
2022/08/18 05:38:33;;;;;;;20.27;10.13;;;;;;;20.46;100.00;95913.81;5040810;28;21177;-72
2022/08/18 05:41:08;;;;;;;21.88;10.32;;;;;;;20.65;100.00;95911.72;5039954;28;20201;-72
2022/08/18 05:43:36;;;;;;;17.67;9.10;;;;;;;20.46;100.00;95896.97;5039468;28;20584;-72
2022/08/18 05:46:05;;;;;;;17.25;8.88;;;;;;;20.32;100.00;95901.84;5040596;28;20228;-71
2022/08/18 05:48:31;;;;;;;18.30;9.60;;;;;;;20.36;100.00;95907.50;5040423;28;20225;-72
2022/08/18 05:50:58;;;;;;;20.27;9.85;;;;;;;20.52;100.00;95912.84;5039699;28;20201;-72
2022/08/18 05:56:45;;;;;;;19.98;10.00;;;;;;;20.71;100.00;95905.34;5039638;28;20623;-72
2022/08/18 05:59:01;;;;;;;18.17;9.52;;;;;;;20.68;100.00;95908.53;5035883;28;20274;-71
2022/08/18 06:01:33;;;;;;;17.10;9.60;;;;;;;20.86;100.00;95907.22;5039846;28;20216;-72
2022/08/18 06:04:08;;;;;;;20.38;9.88;;;;;;;20.69;100.00;95899.44;5039494;28;20205;-71
2022/08/18 06:06:37;;;;;;;15.73;8.93;;;;;;;20.42;100.00;95898.53;5038572;28;20558;-71
2022/08/18 06:09:11;;;;;;;18.08;9.45;;;;;;;20.33;100.00;95897.31;5039732;28;20190;-71
2022/08/18 06:11:39;;;;;;;18.60;9.45;;;;;;;20.36;100.00;95902.16;5039607;28;20197;-71
2022/08/18 06:14:06;;;;;;;16.00;9.18;;;;;;;20.24;100.00;95906.81;5038315;28;20209;-71
2022/08/18 06:16:50;;;;;;;17.00;8.82;;;;;;;20.44;100.00;95907.09;5038438;28;20201;-71
2022/08/18 06:19:32;;;;;;;18.58;9.23;;;;;;;20.49;100.00;95912.53;5039489;28;20217;-72
2022/08/18 06:22:09;;;;;;;18.75;10.45;;;;;;;20.34;100.00;95910.44;5038367;28;20201;-72
2022/08/18 06:24:41;;;;;;;17.88;8.75;;;;;;;20.41;100.00;95910.28;5038304;28;20224;-72
2022/08/18 06:27:19;;;;;;;16.33;9.45;;;;;;;20.60;100.00;95915.09;5039260;28;20201;-71
2022/08/18 06:29:58;;;;;;;17.63;9.35;;;;;;;20.41;100.00;95912.94;5035041;28;20853;-72
2022/08/18 06:32:40;;;;;;;15.80;8.88;;;;;;;20.36;100.00;95912.88;5037480;28;20201;-71
2022/08/18 06:35:17;;;;;;;15.35;8.45;;;;;;;20.48;100.00;95900.19;5038689;28;20221;-71
2022/08/18 06:40:35;;;;;;;14.80;8.45;;;;;;;20.53;100.00;95895.75;5038022;28;20236;-71
2022/08/18 06:43:06;;;;;;;16.45;8.52;;;;;;;20.70;100.00;95887.69;5034773;28;20238;-72
2022/08/18 06:45:36;;;;;;;16.70;8.57;;;;;;;20.51;100.00;95878.31;5038790;28;20237;-72
2022/08/18 06:48:12;;;;;;;16.08;8.10;;;;;;;20.48;100.00;95881.44;5038635;28;20202;-71
2022/08/18 06:50:48;;;;;;;17.05;8.57;;;;;;;20.40;100.00;95876.53;5038868;28;20203;-71
2022/08/18 06:53:15;;;;;;;17.55;9.43;;;;;;;20.18;100.00;95867.63;5038637;28;20209;-71
2022/08/18 06:55:43;;;;;;;18.50;10.05;;;;;;;20.33;100.00;95881.25;5038722;28;20320;-71
2022/08/18 06:58:25;;;;;;;20.27;9.85;;;;;;;20.53;100.00;95877.00;5038685;28;20208;-71
2022/08/18 07:00:58;;;;;;;22.35;10.13;;;;;;;20.41;100.00;95883.50;5038516;28;20272;-71
2022/08/18 07:03:42;;;;;;;27.17;11.35;;;;;;;20.64;100.00;95886.78;5038464;28;20845;-71
2022/08/18 07:06:11;;;;;;;24.48;12.07;;;;;;;20.46;100.00;95892.41;5037892;28;20732;-71
2022/08/18 07:08:40;;;;;;;20.42;11.00;;;;;;;20.47;100.00;95885.22;5038022;28;20202;-71
2022/08/18 07:11:19;;;;;;;23.67;10.95;;;;;;;20.67;100.00;95888.16;5038054;28;20193;-71
2022/08/18 07:13:49;;;;;;;20.52;11.57;;;;;;;20.69;100.00;95886.06;5037619;28;20294;-71
2022/08/18 07:16:21;;;;;;;24.60;11.38;;;;;;;20.54;100.00;95881.28;5038477;28;20225;-71
2022/08/18 07:18:50;;;;;;;24.05;12.63;;;;;;;20.59;100.00;95892.06;5038323;28;20674;-71
2022/08/18 07:21:28;;;;;;;21.63;11.55;;;;;;;20.88;100.00;95886.34;5038060;28;20189;-71
2022/08/18 07:24:00;;;;;;;21.13;11.35;;;;;;;20.93;100.00;95890.94;5034390;28;20201;-71
2022/08/18 07:26:27;;;;;;;20.40;11.15;;;;;;;20.77;100.00;95893.69;5039051;28;20205;-71
2022/08/18 07:29:11;;;;;;;24.42;11.90;;;;;;;20.97;100.00;95894.75;5037433;28;20201;-71
2022/08/18 07:31:41;;;;;;;22.55;11.73;;;;;;;21.08;100.00;95897.31;5038055;28;20204;-71
2022/08/18 07:34:12;;;;;;;21.80;11.50;;;;;;;21.19;100.00;95899.03;5038750;28;20205;-71
2022/08/18 07:36:46;;;;;;;25.77;12.20;;;;;;;21.26;100.00;95894.31;5038812;28;20470;-71
2022/08/18 07:39:20;;;;;;;27.23;12.38;;;;;;;21.27;100.00;95897.78;5037835;28;20200;-72
2022/08/18 07:41:50;;;;;;;22.42;11.57;;;;;;;21.06;100.00;95904.78;5037469;28;20228;-71
2022/08/18 07:44:24;;;;;;;23.25;12.18;;;;;;;20.97;100.00;95911.63;5035902;28;20263;-71
2022/08/18 07:46:59;;;;;;;24.75;12.05;;;;;;;21.01;100.00;95912.75;5037939;28;20205;-71
2022/08/18 07:49:32;;;;;;;25.20;11.70;;;;;;;21.02;100.00;95913.56;5037245;28;20291;-71
2022/08/18 07:52:05;;;;;;;24.13;12.07;;;;;;;21.00;100.00;95921.88;5037924;28;20208;-71
2022/08/18 07:54:50;;;;;;;23.67;12.00;;;;;;;21.06;100.00;95912.81;5036837;28;20221;-71
2022/08/18 07:57:24;;;;;;;24.58;12.25;;;;;;;21.06;100.00;95915.50;5037231;28;20212;-71
2022/08/18 08:00:15;;;;;;;23.48;11.68;;;;;;;20.94;100.00;95919.38;5035158;28;20228;-71
2022/08/18 08:02:52;;;;;;;25.55;13.18;;;;;;;21.12;100.00;95922.53;5034660;28;20220;-71
2022/08/18 08:05:35;;;;;;;24.50;12.52;;;;;;;21.08;100.00;95931.34;5036946;28;20247;-71
2022/08/18 08:08:11;;;;;;;24.30;13.05;;;;;;;21.24;100.00;95928.56;5034932;28;20209;-71
2022/08/18 08:10:48;;;;;;;27.27;13.23;;;;;;;21.09;100.00;95916.88;5035690;28;20817;-71
2022/08/18 08:13:24;;;;;;;30.35;13.55;;;;;;;21.24;100.00;95922.41;5035001;28;20259;-71
2022/08/18 08:16:01;;;;;;;23.63;12.82;;;;;;;21.16;100.00;95914.81;5036921;28;20278;-71
2022/08/18 08:18:36;;;;;;;28.20;12.85;;;;;;;21.21;100.00;95907.66;5036651;28;20212;-72
2022/08/18 08:21:09;;;;;;;28.05;13.25;;;;;;;21.33;100.00;95905.63;5036839;28;20244;-72
2022/08/18 08:23:45;;;;;;;25.88;12.65;;;;;;;21.45;100.00;95900.97;5036252;28;20224;-72
2022/08/18 08:26:23;;;;;;;24.98;13.38;;;;;;;21.51;100.00;95881.19;5036477;28;20220;-72
2022/08/18 08:29:03;;;;;;;27.23;12.32;;;;;;;21.65;100.00;95877.03;5036458;28;20216;-72
2022/08/18 08:31:41;;;;;;;24.77;12.48;;;;;;;21.86;100.00;95874.31;5036500;28;20294;-72
2022/08/18 08:34:13;;;;;;;23.10;11.63;;;;;;;21.97;100.00;95883.25;5035690;28;20234;-72
2022/08/18 08:36:43;;;;;;;23.15;11.65;;;;;;;21.52;100.00;95888.19;5036294;28;20590;-71
2022/08/18 08:39:18;;;;;;;23.30;11.93;;;;;;;21.81;100.00;95892.25;5036816;28;20201;-71
2022/08/18 08:41:50;;;;;;;22.77;11.60;;;;;;;22.02;100.00;95888.66;5036444;28;20228;-71
2022/08/18 08:44:23;;;;;;;28.02;11.82;;;;;;;22.24;100.00;95882.94;5033704;28;20228;-71
2022/08/18 08:46:56;;;;;;;27.27;11.73;;;;;;;22.45;99.90;95886.59;5037588;28;20201;-71
2022/08/18 08:49:30;;;;;;;20.77;11.27;;;;;;;22.62;98.45;95887.25;5036753;28;20212;-71
2022/08/18 08:52:02;;;;;;;20.70;11.13;;;;;;;22.67;97.61;95895.34;5036387;28;20925;-71
2022/08/18 08:54:37;;;;;;;21.83;10.63;;;;;;;22.45;95.46;95898.16;5035632;28;20736;-71
2022/08/18 08:57:05;;;;;;;17.60;9.55;;;;;;;22.25;97.71;95895.31;5035413;28;20224;-71
2022/08/18 08:59:31;;;;;;;19.35;10.63;;;;;;;22.32;95.57;95885.16;5035270;28;20966;-71
2022/08/18 09:02:25;;;;;;;22.05;11.02;;;;;;;22.51;98.68;95882.91;5036197;28;20201;-71
2022/08/18 09:05:00;;;;;;;17.70;10.10;;;;;;;22.54;98.30;95871.63;5035351;28;20225;-71
2022/08/18 09:07:41;;;;;;;22.48;10.93;;;;;;;22.81;95.65;95875.81;5035148;28;20315;-71
2022/08/18 09:10:31;;;;;;;19.80;11.00;;;;;;;23.24;96.70;95864.75;5036246;28;20205;-71
2022/08/18 09:13:16;;;;;;;17.13;9.43;;;;;;;23.02;94.03;95864.13;5035566;28;20205;-71
2022/08/18 09:16:07;;;;;;;18.23;9.70;;;;;;;23.32;95.03;95852.41;5036494;28;20248;-71
2022/08/18 09:18:56;;;;;;;20.25;10.02;;;;;;;23.44;91.58;95852.97;5036365;28;20288;-71
2022/08/18 09:21:37;;;;;;;15.23;9.35;;;;;;;23.50;87.05;95859.97;5035507;28;20240;-71
2022/08/18 09:24:09;;;;;;;15.30;9.07;;;;;;;23.60;93.99;95865.38;5035734;28;20212;-71
2022/08/18 09:26:44;;;;;;;15.40;9.32;;;;;;;24.10;89.61;95860.09;5036740;28;20612;-71
2022/08/18 09:29:17;;;;;;;15.88;9.45;;;;;;;24.30;86.70;95870.81;5035502;28;20200;-71
2022/08/18 09:31:46;;;;;;;16.30;9.88;;;;;;;24.12;85.19;95876.75;5036008;28;20209;-71
2022/08/18 09:34:37;;;;;;;12.82;8.40;;;;;;;24.13;86.76;95878.38;5035936;28;20674;-71
2022/08/18 09:37:13;;;;;;;14.90;7.22;;;;;;;23.96;83.95;95899.38;5035794;28;20204;-71
2022/08/18 09:42:37;;;;;;;13.50;6.78;;;;;;;23.87;85.06;95902.84;5033918;28;20219;-71
2022/08/18 09:45:10;;;;;;;13.07;7.68;;;;;;;23.99;84.45;95888.88;5035399;28;20220;-71
2022/08/18 09:48:02;;;;;;;16.42;7.40;;;;;;;24.17;85.64;95874.06;5036714;28;20259;-71
2022/08/18 09:50:52;;;;;;;12.55;7.63;;;;;;;24.53;84.79;95876.50;5036329;28;20213;-71
2022/08/18 09:53:36;;;;;;;14.80;8.95;;;;;;;24.75;81.34;95877.81;5034865;28;20206;-71
2022/08/18 09:56:04;;;;;;;13.07;7.78;;;;;;;24.88;84.43;95877.22;5036923;28;20282;-71
2022/08/18 09:58:52;;;;;;;14.35;8.68;;;;;;;25.03;84.82;95879.88;5036059;28;20197;-71
2022/08/18 10:01:38;;;;;;;14.85;8.10;;;;;;;25.20;81.51;95881.22;5035642;28;20272;-71
2022/08/18 10:04:30;;;;;;;12.00;7.65;;;;;;;25.19;77.85;95873.41;5035332;28;20207;-71
2022/08/18 10:07:21;;;;;;;13.85;8.20;;;;;;;24.68;79.59;95879.16;5036593;28;20674;-71
2022/08/18 10:09:58;;;;;;;14.45;8.30;;;;;;;24.54;80.58;95870.03;5035884;28;20209;-71
2022/08/18 10:12:40;;;;;;;13.23;8.82;;;;;;;24.54;81.50;95859.25;5039272;28;20211;-71
2022/08/18 10:15:23;;;;;;;14.55;8.27;;;;;;;24.72;81.67;95851.41;5038924;28;20714;-71
2022/08/18 10:18:12;;;;;;;15.23;8.05;;;;;;;24.70;81.91;95850.06;5038122;28;20212;-71
2022/08/18 10:20:49;;;;;;;14.05;7.65;;;;;;;24.61;81.37;95849.00;5038351;28;20225;-71
2022/08/18 10:23:51;;;;;;;15.00;8.25;;;;;;;24.67;77.09;95832.56;5038180;28;20201;-71
2022/08/18 10:27:07;;;;;;;11.38;6.85;;;;;;;24.82;78.14;95821.72;5038969;28;20303;-71
2022/08/18 10:29:50;;;;;;;10.90;6.80;;;;;;;24.92;78.49;95816.28;5039495;28;20620;-71
2022/08/18 10:32:22;;;;;;;11.38;6.63;;;;;;;25.18;79.38;95817.84;5038868;28;20259;-71
2022/08/18 10:34:52;;;;;;;11.40;7.28;;;;;;;25.58;74.86;95799.50;5038257;28;20244;-71
2022/08/18 10:37:22;;;;;;;13.48;7.38;;;;;;;26.06;72.96;95791.31;5038332;28;20815;-71
2022/08/18 10:39:54;;;;;;;11.77;7.18;;;;;;;26.36;77.74;95801.06;5038657;28;20681;-71
2022/08/18 10:42:24;;;;;;;9.95;6.88;;;;;;;26.32;74.37;95808.91;5036529;28;20224;-72
2022/08/18 10:44:55;;;;;;;9.45;6.10;;;;;;;26.41;73.00;95807.22;5039039;28;20248;-72
2022/08/18 10:47:26;;;;;;;11.77;6.97;;;;;;;26.71;69.34;95801.53;5038716;28;20203;-72
2022/08/18 10:49:53;;;;;;;11.88;7.53;;;;;;;26.45;71.53;95792.06;5039031;28;20205;-72
2022/08/18 10:52:57;;;;;;;9.82;6.10;;;;;;;26.57;69.84;95787.09;5038803;28;20201;-72
2022/08/18 10:55:56;;;;;;;9.77;6.40;;;;;;;26.62;68.51;95782.41;5016990;28;20223;-72
2022/08/18 10:58:39;;;;;;;13.95;7.53;;;;;;;26.43;72.38;95794.25;5006056;28;20212;-72
2022/08/18 11:01:44;;;;;;;10.77;6.82;;;;;;;26.23;72.51;95805.22;5038236;28;20308;-72
2022/08/18 11:04:28;;;;;;;14.57;6.55;;;;;;;25.74;74.00;95803.75;5037652;28;20205;-72
2022/08/18 11:07:10;;;;;;;11.93;7.00;;;;;;;25.92;75.19;95795.75;5038395;28;20197;-72
2022/08/18 11:09:38;;;;;;;9.20;6.65;;;;;;;25.96;72.18;95794.09;5036255;28;20220;-73
2022/08/18 11:12:07;;;;;;;12.40;7.13;;;;;;;26.09;71.24;95777.25;5038838;28;20196;-72
2022/08/18 11:14:51;;;;;;;10.25;6.97;;;;;;;26.07;73.92;95762.41;5037701;28;20228;-72
2022/08/18 11:17:31;;;;;;;12.68;7.65;;;;;;;25.77;73.95;95767.28;5038436;28;20201;-72
2022/08/18 11:20:00;;;;;;;11.55;7.38;;;;;;;25.34;76.02;95768.91;5038625;28;20286;-72
2022/08/18 11:22:29;;;;;;;10.30;7.40;;;;;;;25.52;72.77;95770.13;5037258;28;20217;-72
2022/08/18 11:24:56;;;;;;;11.02;7.25;;;;;;;25.58;73.75;95769.03;5038299;28;20221;-72
2022/08/18 11:27:26;;;;;;;13.02;7.18;;;;;;;25.82;73.89;95764.56;5038193;28;20202;-73
2022/08/18 11:29:53;;;;;;;13.70;7.18;;;;;;;26.16;73.11;95771.53;5038597;28;20237;-72
2022/08/18 11:32:26;;;;;;;10.32;7.30;;;;;;;26.86;73.77;95772.41;5037512;28;20205;-72
2022/08/18 11:35:00;;;;;;;10.93;7.10;;;;;;;27.31;70.42;95761.81;5036489;28;20794;-72
2022/08/18 11:37:32;;;;;;;9.55;6.20;;;;;;;26.85;71.33;95754.56;5036080;28;20202;-72
2022/08/18 11:40:01;;;;;;;11.23;6.32;;;;;;;26.79;70.05;95738.69;5037397;28;21254;-72
2022/08/18 11:42:34;;;;;;;9.20;6.07;;;;;;;26.19;70.46;95728.53;5034137;28;20998;-72
2022/08/18 11:45:12;;;;;;;9.15;6.50;;;;;;;26.28;71.98;95732.22;5036936;28;20227;-72
2022/08/18 11:47:38;;;;;;;10.82;6.40;;;;;;;26.00;71.16;95727.63;5036764;28;20205;-72
2022/08/18 11:50:11;;;;;;;10.43;6.47;;;;;;;26.48;71.13;95726.63;5037412;28;20204;-72
2022/08/18 11:52:49;;;;;;;8.73;6.40;;;;;;;26.68;69.41;95734.50;5036884;28;20189;-72